Time;durP1;ratioP1;P1;durP2;ratioP2;P2;SDS_P1;SDS_P2;PMS_P1;PMS_P2;Temp;Humidity;BMP_temperature;BMP_pressure;BME280_temperature;BME280_humidity;BME280_pressure;Samples;Min_cycle;Max_cycle;Signal;HPM_P1;HPM_P2
2022/02/06 00:00:39;;;;;;;6.10;1.63;;;10.70;99.90;;;;;;4998394;28;20058;-60
2022/02/06 00:03:06;;;;;;;7.55;1.98;;;10.70;99.90;;;;;;5002327;28;20105;-60
2022/02/06 00:05:33;;;;;;;6.88;2.28;;;10.80;99.90;;;;;;5000690;28;20054;-60
2022/02/06 00:08:04;;;;;;;5.22;1.83;;;10.70;99.90;;;;;;5001922;28;20500;-59
2022/02/06 00:10:31;;;;;;;8.00;2.20;;;10.80;99.90;;;;;;5001688;28;20069;-60
2022/02/06 00:12:58;;;;;;;6.72;1.80;;;10.80;99.90;;;;;;5002167;28;20854;-60
2022/02/06 00:15:25;;;;;;;6.78;2.08;;;10.70;99.90;;;;;;5000193;28;20199;-59
2022/02/06 00:17:51;;;;;;;7.00;2.28;;;10.70;99.90;;;;;;5001706;28;20141;-60
2022/02/06 00:20:19;;;;;;;9.50;2.65;;;10.70;99.90;;;;;;5000501;28;20132;-59
2022/02/06 00:22:51;;;;;;;6.47;2.30;;;10.70;99.90;;;;;;5002269;28;20423;-58
2022/02/06 00:25:32;;;;;;;8.73;2.35;;;10.70;99.90;;;;;;5001230;28;20073;-59
2022/02/06 00:33:24;;;;;;;6.70;2.25;;;10.70;99.90;;;;;;5001953;28;20145;-59
2022/02/06 00:38:25;;;;;;;6.50;2.10;;;10.70;99.90;;;;;;5001783;28;20085;-59
2022/02/06 00:43:19;;;;;;;6.57;1.73;;;10.70;99.90;;;;;;5001386;28;20078;-58
2022/02/06 00:45:46;;;;;;;9.25;2.08;;;10.60;99.90;;;;;;5000165;28;20615;-57
2022/02/06 00:48:14;;;;;;;7.13;1.63;;;10.60;99.90;;;;;;5001772;28;20079;-59
2022/02/06 00:50:46;;;;;;;6.80;2.13;;;10.60;99.90;;;;;;5000322;28;20096;-58
2022/02/06 00:53:17;;;;;;;5.13;1.60;;;10.60;99.90;;;;;;5002920;28;20859;-59
2022/02/06 00:55:44;;;;;;;4.22;1.58;;;10.70;99.90;;;;;;5005133;28;20639;-59
2022/02/06 00:58:11;;;;;;;6.28;1.73;;;10.60;99.90;;;;;;5004804;28;20160;-59
2022/02/06 01:00:38;;;;;;;6.97;2.25;;;10.70;99.90;;;;;;5004009;28;20077;-59
2022/02/06 01:03:05;;;;;;;5.38;1.90;;;10.60;99.90;;;;;;5005229;28;20148;-59
2022/02/06 01:05:52;;;;;;;8.60;1.95;;;10.70;99.90;;;;;;4987562;28;20050;-57
2022/02/06 01:08:18;;;;;;;6.15;1.20;;;10.70;99.90;;;;;;5003973;28;20089;-58
2022/02/06 01:10:45;;;;;;;4.65;1.55;;;10.70;99.90;;;;;;5003155;28;20555;-59
2022/02/06 01:13:30;;;;;;;7.25;1.95;;;10.70;99.90;;;;;;5003991;28;20077;-59
2022/02/06 01:16:07;;;;;;;7.13;1.88;;;10.60;99.90;;;;;;5001961;28;20133;-58
2022/02/06 01:18:39;;;;;;;6.38;1.92;;;10.60;99.90;;;;;;4995578;28;20453;-59
2022/02/06 01:21:18;;;;;;;4.35;1.80;;;10.60;99.90;;;;;;5003955;28;20127;-59
2022/02/06 01:23:55;;;;;;;6.15;1.92;;;10.50;99.90;;;;;;5003695;28;20141;-59
2022/02/06 01:26:33;;;;;;;5.28;1.88;;;10.50;99.90;;;;;;5004211;28;20077;-58
2022/02/06 01:29:28;;;;;;;5.43;1.65;;;10.40;99.90;;;;;;5000834;28;20070;-59
2022/02/06 01:34:39;;;;;;;5.78;1.95;;;10.30;99.90;;;;;;5000607;28;20081;-59
2022/02/06 01:37:24;;;;;;;;;;;10.30;99.90;;;;;;5003264;28;20679;-59
2022/02/06 02:01:18;;;;;;;7.65;1.77;;;9.60;99.90;;;;;;5003530;28;20558;-59
2022/02/06 02:04:14;;;;;;;7.10;1.73;;;9.60;99.90;;;;;;4998149;28;20073;-57
2022/02/06 02:09:52;;;;;;;6.45;1.50;;;9.50;99.90;;;;;;5002935;28;20644;-59
2022/02/06 02:26:05;;;;;;;8.75;1.58;;;9.60;99.90;;;;;;5002262;28;20648;-59
2022/02/06 02:47:13;;;;;;;7.45;1.77;;;9.20;99.90;;;;;;5004349;28;20054;-57
2022/02/06 02:49:44;;;;;;;5.95;2.22;;;9.10;99.90;;;;;;5003144;28;20203;-59
2022/02/06 02:52:20;;;;;;;6.78;1.45;;;9.10;99.90;;;;;;5003168;28;20081;-59
2022/02/06 02:54:51;;;;;;;5.53;1.77;;;9.10;99.90;;;;;;5003932;28;21018;-59
2022/02/06 02:57:28;;;;;;;6.88;1.95;;;9.10;99.90;;;;;;5004522;28;20137;-58
2022/02/06 03:02:22;;;;;;;2.80;1.25;;;9.20;99.90;;;;;;5004544;28;20076;-58
2022/02/06 03:04:53;;;;;;;7.00;1.45;;;9.20;99.90;;;;;;5002505;28;20164;-58
2022/02/06 03:07:20;;;;;;;5.95;1.63;;;9.20;99.90;;;;;;5004285;28;20128;-58
2022/02/06 03:09:48;;;;;;;7.22;1.65;;;9.30;99.90;;;;;;5022499;28;20501;-58
2022/02/06 03:12:19;;;;;;;3.53;1.23;;;9.30;99.90;;;;;;5022855;28;20069;-57
2022/02/06 03:14:53;;;;;;;5.03;1.48;;;9.30;99.90;;;;;;5005176;28;20085;-58
2022/02/06 03:17:33;;;;;;;4.45;1.58;;;9.40;99.90;;;;;;5003462;28;20112;-58
2022/02/06 03:20:07;;;;;;;5.03;1.67;;;9.40;99.90;;;;;;5002905;28;20129;-58
2022/02/06 03:22:46;;;;;;;9.63;2.40;;;9.50;99.90;;;;;;5004335;28;20061;-58
2022/02/06 03:25:18;;;;;;;4.05;1.20;;;9.50;99.90;;;;;;5003032;28;20137;-58
2022/02/06 03:27:46;;;;;;;7.68;1.83;;;9.50;99.90;;;;;;5004366;28;20120;-58
2022/02/06 03:30:13;;;;;;;4.90;1.30;;;9.50;99.90;;;;;;5002611;28;20156;-58
2022/02/06 03:32:39;;;;;;;5.03;1.38;;;9.60;99.90;;;;;;5003820;28;20411;-58
2022/02/06 03:35:07;;;;;;;7.47;1.58;;;9.60;99.90;;;;;;5002284;28;20092;-58
2022/02/06 03:37:35;;;;;;;8.57;1.58;;;9.70;99.90;;;;;;5004217;28;20041;-58
2022/02/06 03:40:05;;;;;;;4.22;1.50;;;9.70;99.90;;;;;;5003802;28;20081;-57
2022/02/06 03:42:44;;;;;;;4.00;1.15;;;9.70;99.90;;;;;;5002913;28;20120;-58
2022/02/06 03:45:18;;;;;;;7.53;2.28;;;9.70;99.90;;;;;;5000632;28;20073;-58
2022/02/06 03:47:54;;;;;;;6.70;2.38;;;9.80;99.90;;;;;;5003287;28;20137;-59
2022/02/06 03:50:21;;;;;;;8.35;1.65;;;9.80;99.90;;;;;;5002702;28;20140;-59
2022/02/06 03:52:51;;;;;;;7.32;2.00;;;9.90;99.90;;;;;;5003594;28;20061;-59
2022/02/06 03:55:20;;;;;;;6.20;2.15;;;9.90;99.90;;;;;;4999283;28;20125;-59
2022/02/06 03:57:48;;;;;;;5.90;1.48;;;9.90;99.90;;;;;;5003556;28;20141;-59
2022/02/06 04:00:16;;;;;;;5.43;1.30;;;10.00;99.90;;;;;;4998625;28;20081;-60
2022/02/06 04:02:42;;;;;;;6.63;2.15;;;10.00;99.90;;;;;;5003330;28;20152;-59
2022/02/06 04:05:09;;;;;;;6.03;1.30;;;10.10;99.90;;;;;;5001957;28;20572;-57
2022/02/06 04:07:36;;;;;;;5.68;1.63;;;10.10;99.90;;;;;;5003838;28;20116;-58
2022/02/06 04:10:04;;;;;;;5.07;1.30;;;10.10;99.90;;;;;;5002600;28;20547;-58
2022/02/06 04:12:31;;;;;;;6.72;1.98;;;10.00;99.90;;;;;;5003344;28;20077;-58
2022/02/06 04:15:02;;;;;;;5.20;1.42;;;10.10;99.90;;;;;;5001429;28;20077;-59
2022/02/06 04:17:36;;;;;;;4.65;1.50;;;10.10;99.90;;;;;;4999127;28;20093;-58
2022/02/06 04:20:04;;;;;;;5.40;1.60;;;10.10;99.90;;;;;;5002167;28;20148;-58
2022/02/06 04:22:30;;;;;;;3.20;1.10;;;10.10;99.90;;;;;;5003096;28;20583;-58
2022/02/06 04:24:57;;;;;;;3.92;1.58;;;10.10;99.90;;;;;;5002771;28;20104;-58
2022/02/06 04:27:24;;;;;;;6.22;2.10;;;10.10;99.90;;;;;;5004734;28;20127;-58
2022/02/06 04:29:53;;;;;;;6.40;1.33;;;10.10;99.90;;;;;;5005425;28;20678;-58
2022/02/06 04:32:20;;;;;;;5.03;1.50;;;10.10;99.90;;;;;;5007008;28;20068;-59
2022/02/06 04:34:47;;;;;;;9.90;2.28;;;10.00;99.90;;;;;;5005734;28;20133;-59
2022/02/06 04:37:25;;;;;;;6.00;1.92;;;10.10;99.90;;;;;;5007106;28;20561;-58
2022/02/06 04:40:09;;;;;;;5.47;1.60;;;10.10;99.90;;;;;;5006707;28;20080;-58
2022/02/06 05:15:08;;;;;;;3.75;1.40;;;10.40;99.90;;;;;;4966169;28;20059;-58
2022/02/06 05:30:26;;;;;;;4.35;1.35;;;10.40;99.90;;;;;;5004656;28;20085;-58
2022/02/06 05:35:22;;;;;;;5.78;2.65;;;10.40;99.90;;;;;;5004713;28;20089;-58
2022/02/06 05:37:49;;;;;;;5.43;1.65;;;10.40;99.90;;;;;;5005237;28;20108;-58
2022/02/06 05:40:17;;;;;;;6.03;1.50;;;10.40;99.90;;;;;;5004741;28;20157;-58
2022/02/06 05:42:44;;;;;;;5.00;1.38;;;10.40;99.90;;;;;;5005536;28;20449;-59
2022/02/06 05:45:11;;;;;;;5.65;1.80;;;10.40;99.90;;;;;;5003590;28;20149;-59
2022/02/06 05:47:38;;;;;;;7.78;1.63;;;10.50;99.90;;;;;;5006023;28;20058;-59
2022/02/06 05:50:05;;;;;;;4.57;1.17;;;10.50;99.90;;;;;;5004247;28;20078;-59
2022/02/06 05:52:32;;;;;;;5.43;1.58;;;10.50;99.90;;;;;;5023802;28;20092;-59
2022/02/06 05:54:59;;;;;;;5.40;1.33;;;10.50;99.90;;;;;;5008876;28;20458;-59
2022/02/06 05:57:25;;;;;;;3.25;1.13;;;10.60;99.90;;;;;;4987910;28;20125;-59
2022/02/06 05:59:52;;;;;;;5.10;1.55;;;10.50;99.90;;;;;;5002519;28;20081;-59
2022/02/06 06:02:19;;;;;;;4.47;1.55;;;10.60;99.90;;;;;;5002438;28;20454;-59
2022/02/06 06:04:46;;;;;;;7.32;1.80;;;10.50;99.90;;;;;;4999192;28;20421;-59
2022/02/06 06:07:12;;;;;;;4.65;1.40;;;10.50;99.90;;;;;;5003527;28;20132;-59
2022/02/06 06:09:39;;;;;;;4.63;1.25;;;10.50;99.90;;;;;;5003153;28;20082;-59
2022/02/06 06:12:08;;;;;;;4.40;1.17;;;10.40;99.90;;;;;;5003159;28;20137;-59
2022/02/06 06:14:34;;;;;;;2.65;1.00;;;10.40;99.90;;;;;;5001544;28;20160;-59
2022/02/06 06:17:01;;;;;;;4.50;1.27;;;10.40;99.90;;;;;;5003287;28;20137;-59
2022/02/06 06:19:28;;;;;;;5.97;1.23;;;10.30;99.90;;;;;;5002114;28;20471;-59
2022/02/06 06:21:57;;;;;;;3.92;1.38;;;10.30;99.90;;;;;;5003118;28;20610;-59
2022/02/06 06:24:24;;;;;;;5.18;1.40;;;10.30;99.90;;;;;;5005441;28;20120;-59
2022/02/06 06:26:51;;;;;;;5.82;1.30;;;10.30;99.90;;;;;;5003000;28;20084;-58
2022/02/06 06:29:18;;;;;;;3.67;1.20;;;10.30;99.90;;;;;;5001836;28;20397;-59
2022/02/06 06:31:46;;;;;;;4.85;1.25;;;10.30;99.90;;;;;;5002798;28;20081;-58
2022/02/06 06:34:13;;;;;;;4.03;1.10;;;10.20;99.90;;;;;;5002252;28;20065;-59
2022/02/06 06:36:46;;;;;;;3.70;1.05;;;10.20;99.90;;;;;;5000750;28;20050;-59
2022/02/06 06:39:17;;;;;;;4.00;1.10;;;10.20;99.90;;;;;;5002964;28;20233;-59
2022/02/06 06:41:57;;;;;;;5.53;1.30;;;10.20;99.90;;;;;;5019138;28;20049;-58
2022/02/06 06:44:24;;;;;;;3.03;0.95;;;10.10;99.90;;;;;;5003994;28;20139;-59
2022/02/06 06:46:51;;;;;;;5.15;1.65;;;10.20;99.90;;;;;;5011827;28;20053;-59
2022/02/06 06:49:18;;;;;;;4.40;1.27;;;10.20;99.90;;;;;;5001831;28;20052;-59
2022/02/06 06:51:45;;;;;;;2.92;0.95;;;10.20;99.90;;;;;;5018172;28;20834;-59
2022/02/06 06:54:17;;;;;;;3.13;1.17;;;10.20;99.90;;;;;;5006128;28;20453;-59
2022/02/06 06:56:53;;;;;;;4.18;1.00;;;10.20;99.90;;;;;;5002376;28;20096;-59
2022/02/06 06:59:44;;;;;;;4.40;1.20;;;10.20;99.90;;;;;;4996323;28;20548;-59
2022/02/06 07:04:44;;;;;;;5.03;1.60;;;10.20;99.90;;;;;;5001003;28;20655;-59
2022/02/06 07:07:11;;;;;;;4.10;0.93;;;10.10;99.90;;;;;;5013605;28;20164;-59
2022/02/06 07:09:37;;;;;;;7.25;1.92;;;10.10;99.90;;;;;;4998783;28;20132;-59
2022/02/06 07:12:06;;;;;;;4.40;1.50;;;10.10;99.90;;;;;;4999616;28;20144;-59
2022/02/06 07:14:33;;;;;;;7.10;1.30;;;10.10;99.90;;;;;;4995849;28;20049;-59
2022/02/06 07:17:01;;;;;;;4.50;1.70;;;10.10;99.90;;;;;;4998752;28;20049;-58
2022/02/06 07:19:27;;;;;;;4.47;0.93;;;10.10;99.90;;;;;;4996730;28;20124;-58
2022/02/06 07:21:55;;;;;;;4.30;1.30;;;10.00;99.90;;;;;;4992855;28;20119;-59
2022/02/06 07:24:25;;;;;;;3.42;1.10;;;10.00;99.90;;;;;;4998319;28;20054;-59
2022/02/06 07:26:56;;;;;;;3.03;1.23;;;10.10;99.90;;;;;;4997112;28;20085;-59
2022/02/06 07:29:24;;;;;;;4.53;1.33;;;10.10;99.90;;;;;;4996505;28;20070;-59
2022/02/06 07:31:53;;;;;;;5.45;1.58;;;10.10;99.90;;;;;;4998940;28;20144;-59
2022/02/06 07:34:19;;;;;;;4.78;1.23;;;10.20;99.90;;;;;;4998167;28;20461;-58
2022/02/06 07:36:46;;;;;;;7.68;1.63;;;10.20;99.90;;;;;;4998836;28;20482;-59
2022/02/06 07:39:13;;;;;;;6.38;1.80;;;10.30;99.90;;;;;;4998244;28;20145;-59
2022/02/06 07:41:40;;;;;;;4.38;1.20;;;10.30;99.90;;;;;;4998967;28;20054;-59
2022/02/06 07:44:06;;;;;;;3.30;1.38;;;10.30;99.90;;;;;;4998002;28;20100;-59
2022/02/06 07:46:45;;;;;;;6.07;2.75;;;10.30;99.90;;;;;;4998906;28;20180;-59
2022/02/06 07:49:13;;;;;;;3.20;1.10;;;10.30;99.90;;;;;;4991281;28;20046;-59
2022/02/06 07:51:40;;;;;;;3.80;1.08;;;10.40;99.90;;;;;;4988288;28;20188;-59
2022/02/06 07:54:07;;;;;;;6.78;1.27;;;10.40;99.90;;;;;;4991031;28;20129;-59
2022/02/06 07:56:34;;;;;;;4.97;1.40;;;10.40;99.90;;;;;;4988973;28;20213;-59
2022/02/06 07:59:01;;;;;;;3.25;1.10;;;10.50;99.90;;;;;;4990270;28;20053;-59
2022/02/06 08:01:28;;;;;;;3.45;1.15;;;10.60;99.90;;;;;;4992153;28;20050;-59
2022/02/06 08:03:54;;;;;;;2.85;1.08;;;10.60;99.90;;;;;;4995858;28;20057;-59
2022/02/06 08:06:21;;;;;;;3.13;1.00;;;10.60;99.90;;;;;;4991212;28;20147;-59
2022/02/06 08:08:48;;;;;;;3.80;1.25;;;10.50;99.90;;;;;;4991804;28;21024;-59
2022/02/06 08:11:16;;;;;;;3.30;1.10;;;10.40;99.90;;;;;;4992782;28;20149;-59
2022/02/06 08:13:50;;;;;;;1.92;0.60;;;10.40;99.90;;;;;;4993850;28;20144;-59
2022/02/06 08:16:17;;;;;;;4.00;0.98;;;10.30;99.90;;;;;;5000239;28;20168;-59
2022/02/06 08:18:43;;;;;;;4.13;0.95;;;10.20;99.90;;;;;;5001835;28;20145;-59
2022/02/06 08:21:11;;;;;;;3.83;0.98;;;10.10;99.90;;;;;;5000834;28;20400;-59
2022/02/06 08:23:44;;;;;;;4.78;1.58;;;10.00;99.90;;;;;;5001806;28;20061;-59
2022/02/06 08:26:11;;;;;;;3.33;0.80;;;10.00;99.90;;;;;;4995684;28;20454;-59
2022/02/06 08:28:39;;;;;;;3.05;0.93;;;10.00;99.90;;;;;;4993771;28;20061;-59
2022/02/06 08:31:05;;;;;;;4.35;1.00;;;9.90;99.90;;;;;;4995293;28;20066;-59
2022/02/06 08:33:32;;;;;;;3.30;1.00;;;10.00;99.90;;;;;;4993340;28;20932;-59
2022/02/06 08:35:59;;;;;;;3.22;1.25;;;10.00;99.90;;;;;;4997934;28;20144;-59
2022/02/06 08:38:27;;;;;;;6.47;1.48;;;10.00;99.90;;;;;;5001225;28;20145;-60
2022/02/06 08:40:54;;;;;;;3.10;1.10;;;10.00;99.90;;;;;;5001788;28;20129;-60
2022/02/06 08:43:21;;;;;;;5.50;1.38;;;10.00;99.90;;;;;;4998455;28;20078;-59
2022/02/06 08:45:47;;;;;;;3.28;1.30;;;10.10;99.90;;;;;;4998377;28;20236;-59
2022/02/06 08:48:14;;;;;;;2.42;1.15;;;10.10;99.90;;;;;;5002298;28;20160;-59
2022/02/06 08:50:41;;;;;;;4.53;1.08;;;10.10;99.90;;;;;;4999222;28;20133;-59
2022/02/06 08:53:08;;;;;;;4.75;1.58;;;10.20;99.90;;;;;;4999113;28;20053;-60
2022/02/06 08:55:34;;;;;;;5.93;1.30;;;10.20;99.90;;;;;;4999039;28;20133;-59
2022/02/06 08:58:01;;;;;;;5.38;1.30;;;10.20;99.90;;;;;;4990402;28;20089;-60
2022/02/06 09:00:28;;;;;;;3.58;1.30;;;10.20;99.90;;;;;;5000455;28;20081;-60
2022/02/06 09:02:55;;;;;;;4.00;1.45;;;10.30;99.90;;;;;;4999681;28;20137;-59
2022/02/06 09:05:24;;;;;;;2.67;0.93;;;10.30;99.90;;;;;;4999847;28;20050;-60
2022/02/06 09:07:50;;;;;;;3.67;1.40;;;10.30;99.90;;;;;;5001845;28;20170;-59
2022/02/06 09:10:19;;;;;;;4.28;1.25;;;10.30;99.90;;;;;;5000657;28;20528;-60
2022/02/06 09:12:53;;;;;;;3.55;0.98;;;10.40;99.90;;;;;;4986612;28;20129;-60
2022/02/06 09:15:20;;;;;;;5.38;1.63;;;10.40;99.90;;;;;;4982160;28;20065;-59
2022/02/06 09:17:48;;;;;;;4.88;1.30;;;10.40;99.90;;;;;;4996038;28;20089;-60
2022/02/06 09:20:16;;;;;;;5.75;1.92;;;10.40;99.90;;;;;;4991943;28;20399;-60
2022/02/06 09:22:44;;;;;;;5.30;1.10;;;10.40;99.90;;;;;;5001739;28;20093;-60
2022/02/06 09:25:11;;;;;;;5.40;1.60;;;10.50;99.90;;;;;;5000600;28;20050;-60
2022/02/06 09:27:38;;;;;;;4.57;1.92;;;10.50;99.90;;;;;;4998432;28;20413;-59
2022/02/06 09:30:07;;;;;;;2.95;1.05;;;10.50;99.90;;;;;;4997503;28;20074;-58
2022/02/06 09:37:33;;;;;;;4.47;1.00;;;10.70;99.90;;;;;;5000888;28;20050;-59
2022/02/06 09:40:00;;;;;;;3.05;0.90;;;10.70;99.90;;;;;;4999749;28;20077;-59
2022/02/06 09:42:28;;;;;;;2.55;0.95;;;10.70;99.90;;;;;;5000874;28;20605;-58
2022/02/06 09:44:57;;;;;;;3.85;0.90;;;10.70;99.90;;;;;;4995060;28;20272;-59
2022/02/06 09:47:26;;;;;;;3.63;0.90;;;10.60;99.90;;;;;;5000184;28;20120;-57
2022/02/06 09:49:52;;;;;;;4.57;1.05;;;10.60;99.90;;;;;;4986402;28;20043;-59
2022/02/06 09:52:28;;;;;;;2.53;1.00;;;10.70;99.90;;;;;;4981417;28;20405;-58
2022/02/06 09:55:03;;;;;;;1.27;0.70;;;10.70;99.90;;;;;;4993974;28;20054;-58
2022/02/06 09:57:38;;;;;;;2.92;1.00;;;10.70;99.90;;;;;;5000518;28;20524;-58
2022/02/06 10:00:06;;;;;;;2.78;0.70;;;10.60;99.90;;;;;;4981802;28;20136;-58
2022/02/06 10:02:34;;;;;;;4.47;0.98;;;10.50;99.90;;;;;;4991483;28;20144;-58
2022/02/06 10:05:03;;;;;;;2.13;0.73;;;10.40;99.90;;;;;;4990621;28;20058;-58
2022/02/06 10:07:41;;;;;;;2.05;1.45;;;10.30;99.90;;;;;;4990105;28;20661;-58
2022/02/06 10:10:10;;;;;;;2.70;0.85;;;10.20;99.90;;;;;;4992714;28;20137;-58
2022/02/06 10:12:46;;;;;;;2.67;0.77;;;10.30;99.90;;;;;;5006217;28;20342;-58
2022/02/06 10:15:14;;;;;;;1.20;0.50;;;10.40;99.90;;;;;;4997930;28;20132;-58
2022/02/06 10:17:41;;;;;;;1.77;0.75;;;10.60;99.90;;;;;;5001374;28;20582;-58
2022/02/06 10:20:32;;;;;;;1.67;0.70;;;10.70;99.90;;;;;;4998873;28;20495;-58
2022/02/06 10:23:04;;;;;;;1.15;0.60;;;10.80;99.90;;;;;;5001360;28;20072;-59
2022/02/06 10:25:36;;;;;;;2.03;0.60;;;10.80;99.90;;;;;;4998947;28;20516;-59
2022/02/06 10:30:50;;;;;;;1.25;0.38;;;10.80;99.90;;;;;;5000517;28;20168;-59
2022/02/06 10:33:21;;;;;;;0.55;0.40;;;10.80;99.90;;;;;;5000643;28;20159;-59
2022/02/06 10:35:49;;;;;;;1.35;0.40;;;10.80;99.90;;;;;;4998927;28;20137;-59
2022/02/06 10:38:20;;;;;;;1.75;0.50;;;10.80;99.90;;;;;;5000353;28;20628;-59
2022/02/06 10:41:17;;;;;;;0.57;0.30;;;10.80;99.90;;;;;;5001091;28;20144;-59
2022/02/06 10:44:07;;;;;;;0.32;0.22;;;10.90;99.90;;;;;;4998549;28;20053;-59
2022/02/06 10:46:43;;;;;;;1.58;0.57;;;11.00;99.90;;;;;;4998567;28;20042;-59
2022/02/06 10:49:19;;;;;;;0.57;0.40;;;11.00;99.90;;;;;;5000363;28;20089;-59
2022/02/06 10:51:52;;;;;;;1.63;0.28;;;11.10;99.90;;;;;;5000809;28;20523;-59
2022/02/06 10:54:28;;;;;;;0.75;0.45;;;11.10;99.90;;;;;;4994102;28;20132;-58
2022/02/06 10:57:12;;;;;;;0.40;0.30;;;11.00;99.90;;;;;;4987943;28;20157;-59
2022/02/06 10:59:53;;;;;;;1.02;0.40;;;11.00;99.90;;;;;;4997515;28;20143;-59
2022/02/06 11:02:29;;;;;;;0.90;0.30;;;11.00;99.90;;;;;;4994874;28;20085;-58
2022/02/06 11:05:01;;;;;;;0.32;0.20;;;11.00;99.90;;;;;;4995147;28;20831;-58
2022/02/06 11:07:28;;;;;;;0.77;0.40;;;11.00;99.90;;;;;;5011604;28;20132;-59
2022/02/06 11:10:12;;;;;;;0.20;0.20;;;11.00;99.90;;;;;;4983884;28;20130;-58
2022/02/06 11:12:42;;;;;;;0.88;0.40;;;11.00;99.90;;;;;;5007045;28;20450;-59
2022/02/06 11:15:26;;;;;;;1.38;0.40;;;11.10;99.90;;;;;;4997000;28;20568;-57
2022/02/06 11:18:09;;;;;;;1.00;0.47;;;11.10;99.90;;;;;;5000013;28;20050;-60
2022/02/06 11:20:53;;;;;;;1.52;0.63;;;11.20;99.90;;;;;;5004656;28;20128;-58
2022/02/06 11:23:20;;;;;;;2.15;0.50;;;11.20;99.90;;;;;;4996055;28;20152;-57
2022/02/06 11:25:49;;;;;;;0.95;0.30;;;11.20;99.90;;;;;;4982800;28;20141;-58
2022/02/06 11:28:16;;;;;;;1.05;0.50;;;11.20;99.90;;;;;;5003779;28;20129;-59
2022/02/06 11:30:43;;;;;;;1.52;0.60;;;11.10;99.90;;;;;;4991809;28;20141;-59
2022/02/06 11:33:10;;;;;;;0.68;0.40;;;11.10;99.90;;;;;;4997514;28;20107;-59
2022/02/06 11:35:39;;;;;;;2.15;0.50;;;11.10;99.90;;;;;;4994044;28;20111;-60
2022/02/06 11:44:40;;;;;;;1.38;0.60;;;11.40;99.90;;;;;;4996999;28;20081;-59
2022/02/06 11:47:20;;;;;;;0.73;0.40;;;11.30;99.90;;;;;;5010264;28;20182;-60
2022/02/06 11:49:48;;;;;;;1.13;0.45;;;11.40;99.90;;;;;;4998305;28;20149;-60
2022/02/06 11:52:15;;;;;;;0.93;0.50;;;11.40;99.90;;;;;;4999563;28;20061;-59
2022/02/06 11:54:49;;;;;;;1.75;0.40;;;11.40;99.90;;;;;;4995230;28;20469;-59
2022/02/06 11:57:21;;;;;;;0.60;0.30;;;11.30;99.90;;;;;;4999135;28;20045;-59
2022/02/06 12:00:06;;;;;;;0.38;0.30;;;11.30;99.90;;;;;;5012223;28;20108;-60
2022/02/06 12:02:37;;;;;;;1.45;0.52;;;11.30;99.90;;;;;;5017896;28;20504;-59
2022/02/06 12:05:15;;;;;;;0.52;0.35;;;11.30;99.90;;;;;;4995036;28;20153;-59
2022/02/06 12:07:51;;;;;;;1.05;0.50;;;11.20;99.90;;;;;;4994086;28;20140;-59
2022/02/06 12:10:59;;;;;;;0.77;0.40;;;11.20;99.90;;;;;;4999101;28;20775;-59
2022/02/06 12:13:32;;;;;;;0.82;0.40;;;11.30;99.90;;;;;;4984868;28;20042;-59
2022/02/06 12:16:04;;;;;;;1.67;0.70;;;11.40;99.90;;;;;;5007884;28;20132;-59
2022/02/06 12:18:36;;;;;;;2.08;0.50;;;11.30;99.90;;;;;;5005204;28;20057;-59
2022/02/06 12:21:20;;;;;;;1.75;0.73;;;11.30;99.90;;;;;;4995188;28;20526;-59
2022/02/06 12:23:59;;;;;;;2.28;0.82;;;11.30;99.90;;;;;;4993701;28;20089;-58
2022/02/06 12:26:40;;;;;;;1.83;0.60;;;11.20;99.90;;;;;;4997703;28;20129;-59
2022/02/06 12:29:13;;;;;;;1.77;1.05;;;11.30;99.90;;;;;;4997945;28;20136;-59
2022/02/06 12:31:56;;;;;;;1.75;0.60;;;11.30;99.90;;;;;;4997898;28;20100;-59
2022/02/06 12:37:37;;;;;;;2.60;0.93;;;11.50;99.90;;;;;;4994159;28;20517;-60
2022/02/06 12:40:14;;;;;;;2.22;0.85;;;11.30;99.90;;;;;;4997585;28;20132;-60
2022/02/06 12:42:41;;;;;;;2.35;1.05;;;11.40;99.90;;;;;;4988740;28;20466;-59
2022/02/06 12:45:10;;;;;;;5.93;0.90;;;11.60;99.90;;;;;;4996749;28;20588;-60
2022/02/06 12:47:40;;;;;;;2.13;0.85;;;11.90;99.90;;;;;;4993440;28;20319;-60
2022/02/06 12:50:34;;;;;;;3.20;1.00;;;11.90;99.90;;;;;;4989838;28;20442;-60
2022/02/06 12:53:01;;;;;;;3.95;1.10;;;11.90;99.90;;;;;;4993304;28;20153;-60
2022/02/06 12:55:30;;;;;;;1.88;0.95;;;12.30;99.90;;;;;;4993611;28;20186;-60
2022/02/06 12:57:58;;;;;;;1.63;0.90;;;12.50;99.90;;;;;;4997079;28;20173;-59
2022/02/06 13:00:33;;;;;;;3.38;1.00;;;12.40;99.90;;;;;;5011083;28;20160;-60
2022/02/06 13:03:16;;;;;;;4.22;1.00;;;12.40;99.90;;;;;;4993134;28;20135;-60
2022/02/06 13:05:52;;;;;;;2.60;0.88;;;12.00;99.90;;;;;;4993989;28;20364;-60
2022/02/06 13:08:19;;;;;;;3.47;1.02;;;12.00;99.90;;;;;;4997497;28;20151;-60
2022/02/06 13:11:01;;;;;;;2.38;0.90;;;11.90;99.90;;;;;;4994241;28;20381;-60
2022/02/06 13:24:43;;;;;;;3.78;1.40;;;12.70;99.90;;;;;;4994942;28;20128;-60
2022/02/06 13:27:34;;;;;;;5.32;1.58;;;13.00;99.90;;;;;;4991626;28;20465;-59
2022/02/06 13:30:06;;;;;;;4.53;1.20;;;13.00;99.90;;;;;;4995548;28;20077;-59
2022/02/06 13:35:21;;;;;;;2.70;1.45;;;12.90;99.90;;;;;;4998133;28;20728;-59
2022/02/06 13:37:57;;;;;;;4.80;1.35;;;12.70;99.90;;;;;;4995143;28;20589;-59
2022/02/06 13:40:29;;;;;;;4.35;1.50;;;12.50;99.90;;;;;;4998483;28;20429;-60
2022/02/06 13:43:08;;;;;;;4.50;1.42;;;12.40;99.90;;;;;;4988512;28;20128;-60
2022/02/06 13:45:35;;;;;;;3.45;1.35;;;12.80;99.90;;;;;;4997971;28;20038;-60
2022/02/06 13:48:03;;;;;;;4.93;1.35;;;13.20;99.90;;;;;;4993580;28;20160;-59
2022/02/06 13:50:30;;;;;;;6.80;1.98;;;13.10;99.90;;;;;;4994531;28;20190;-60
2022/02/06 13:53:07;;;;;;;3.22;1.27;;;13.10;99.90;;;;;;4996633;28;20053;-60
2022/02/06 13:55:43;;;;;;;7.50;1.80;;;12.80;99.90;;;;;;4998508;28;20570;-60
2022/02/06 13:58:17;;;;;;;5.97;1.77;;;12.70;99.90;;;;;;4996578;28;20493;-60
2022/02/06 14:01:01;;;;;;;4.07;1.20;;;12.60;99.90;;;;;;4998224;28;20454;-60
2022/02/06 14:03:47;;;;;;;4.30;1.48;;;12.60;99.90;;;;;;4999713;28;20161;-60
2022/02/06 14:06:19;;;;;;;3.63;1.52;;;12.60;99.90;;;;;;4994904;28;20053;-59
2022/02/06 14:09:11;;;;;;;4.82;1.33;;;12.50;99.90;;;;;;4999549;28;20050;-59
2022/02/06 14:11:38;;;;;;;2.80;1.40;;;12.30;99.90;;;;;;5000788;28;20057;-59
2022/02/06 14:14:17;;;;;;;5.85;1.40;;;12.20;99.90;;;;;;4998110;28;20078;-59
2022/02/06 14:16:45;;;;;;;4.88;1.35;;;12.20;99.90;;;;;;4989511;28;20093;-60
2022/02/06 14:19:13;;;;;;;4.38;1.38;;;12.10;99.90;;;;;;4994629;28;20178;-59
2022/02/06 14:21:42;;;;;;;3.15;1.00;;;12.00;99.90;;;;;;4994842;28;20486;-59
2022/02/06 14:24:08;;;;;;;2.13;1.02;;;11.90;99.90;;;;;;4994851;28;20064;-59
2022/02/06 14:26:35;;;;;;;3.20;1.10;;;11.90;99.90;;;;;;4997169;28;20561;-58
2022/02/06 14:29:02;;;;;;;3.08;1.00;;;11.90;99.90;;;;;;4991586;28;20046;-59
2022/02/06 14:31:30;;;;;;;3.58;1.00;;;12.10;99.90;;;;;;5000476;28;20130;-59
2022/02/06 14:34:19;;;;;;;3.35;1.08;;;12.10;99.90;;;;;;4999175;28;20153;-60
2022/02/06 14:37:14;;;;;;;2.92;1.90;;;12.40;99.90;;;;;;4999429;28;20077;-59
2022/02/06 14:39:54;;;;;;;2.45;1.10;;;12.80;99.90;;;;;;4998266;28;20265;-60
2022/02/06 14:42:22;;;;;;;3.65;1.17;;;13.00;99.90;;;;;;5000501;28;20129;-60
2022/02/06 14:44:49;;;;;;;2.22;0.80;;;13.30;99.90;;;;;;4995612;28;20129;-60
2022/02/06 14:47:15;;;;;;;2.38;1.10;;;13.80;99.90;;;;;;4999611;28;20136;-60
2022/02/06 14:49:42;;;;;;;1.27;0.88;;;14.00;99.90;;;;;;4998705;28;20524;-60
2022/02/06 14:52:09;;;;;;;1.85;0.70;;;13.80;99.90;;;;;;4999484;28;20092;-60
2022/02/06 14:54:41;;;;;;;1.45;0.93;;;13.60;99.90;;;;;;4999213;28;20132;-60
2022/02/06 14:57:10;;;;;;;1.85;0.90;;;13.30;99.90;;;;;;4997594;28;20136;-60
2022/02/06 14:59:37;;;;;;;1.67;0.70;;;12.70;99.90;;;;;;4998345;28;20057;-60
2022/02/06 15:02:04;;;;;;;3.55;0.95;;;12.50;99.90;;;;;;4999823;28;20046;-60
2022/02/06 15:04:31;;;;;;;2.67;0.90;;;12.20;99.90;;;;;;4998559;28;20046;-59
2022/02/06 15:06:58;;;;;;;2.15;0.95;;;11.90;99.90;;;;;;4999371;28;20517;-60
2022/02/06 15:09:25;;;;;;;2.35;1.35;;;11.70;99.90;;;;;;4997110;28;20405;-60
2022/02/06 15:11:51;;;;;;;3.33;1.15;;;11.60;99.90;;;;;;4997173;28;20475;-60
2022/02/06 15:14:20;;;;;;;2.13;1.20;;;12.20;99.90;;;;;;4997560;28;20104;-59
2022/02/06 15:16:48;;;;;;;1.85;1.08;;;12.60;99.90;;;;;;4999078;28;20058;-59
2022/02/06 15:19:26;;;;;;;1.38;0.80;;;12.80;99.90;;;;;;4994153;28;20513;-59
2022/02/06 15:21:53;;;;;;;4.38;0.90;;;12.70;99.90;;;;;;4982472;28;20096;-59
2022/02/06 15:24:19;;;;;;;1.92;0.80;;;12.20;99.90;;;;;;4989305;28;20136;-59
2022/02/06 15:26:46;;;;;;;1.70;0.63;;;11.90;99.90;;;;;;4999298;28;20615;-59
2022/02/06 15:29:13;;;;;;;2.67;0.90;;;11.80;99.90;;;;;;4998284;28;20457;-60
2022/02/06 15:31:40;;;;;;;1.80;0.88;;;11.70;99.90;;;;;;4999756;28;20129;-60
2022/02/06 15:34:15;;;;;;;3.63;0.85;;;11.70;99.90;;;;;;4985590;28;20199;-59
2022/02/06 15:36:48;;;;;;;1.58;0.50;;;11.50;99.90;;;;;;4998880;28;20367;-59
2022/02/06 15:39:24;;;;;;;0.75;0.55;;;11.30;99.90;;;;;;4992212;28;20621;-60
2022/02/06 15:41:54;;;;;;;1.35;0.68;;;11.20;99.90;;;;;;4995598;28;20485;-60